Samuel Rangel

Olheiro - São Paulo
22 Fev 2027
Segunda-feira
Processo

Personalidade

Adaptabilidade (1) Ambição (3) Controvérsia (1) Lealdade (2) Pressão (18) Profissionalismo (1) Espírito Esportivo (4) Temperamento (5)

Perfil

Estilo de Treinamento Democrático
Licença Continental Pro
Determinação 15
Gestão de Pessoas 13
Motivação 11
Disciplina 12
Satisfação no Trabalho
50%
Fadiga
0%
Função Olheiro
Salário 77.9K p/s
Contrato 14.03.2029

Desempenho

Comportamento Normal
Eficácia do Treinamento
28%
Desenvolvimento do Jogador
30%
Prevenção de Lesões
75%
Implementação Tática
40%

Eventos Recentes

Participou de uma reunião de recrutamento agora
Avaliou um jogador agora
Participou de uma reunião de recrutamento 7d atrás
Avaliou um jogador 7d atrás
Participou de uma reunião de recrutamento 14d atrás
Votou contra um alvo de transferência 14d atrás
Avaliou um jogador 14d atrás
Avaliou um jogador 21d atrás

Monitorando agora

139
Jogador Clube Status Habilidade Confiança Observado Última observação Último voto
Julian Weigl Al-Qadisiyah Ativo 143 / 141 40% 3 21.02.2027 -
Rodrigo Echeverría Leon Ativo 133 / 130 40% 1 21.02.2027 -
César Araújo Tigres Ativo 122 / 123 40% 1 21.02.2027 -
Rubén Duarte Pumas UNAM Ativo 129 / 128 40% 2 20.02.2027 -
Mathias Jensen Brentford Ativo 150 / 139 40% 1 20.02.2027 -
Hidemasa Morita Hull City Ativo 134 / 138 40% 1 20.02.2027 -
Gerardo Arteaga Monterrey Ativo 133 / 128 40% 2 16.02.2027 -
Joaquim Tigres Ativo 128 / 125 40% 1 16.02.2027 -
Gabriel Rojas Cruzeiro Ativo 135 / 123 40% 2 12.02.2027 -
Jhohan Romaña Leon Ativo 123 / 132 40% 1 12.02.2027 -
William Cruzeiro Ativo 132 / 140 40% 5 02.02.2027 -
Víctor Guzmán Monterrey Ativo 136 / 128 40% 2 02.02.2027 -
Adalberto Carrasquilla Pumas UNAM Ativo 121 / 130 40% 1 02.02.2027 -
Jesús Angulo Tigres Ativo 134 / 136 40% 2 26.01.2027 -
Pablo Rosario Porto Ativo 131 / 135 40% 2 26.01.2027 -
Danilo Botafogo Ativo 131 / 137 40% 2 22.01.2027 -
Martinelli Fluminense Ativo 140 / 139 40% 2 22.01.2027 -
Richard Ledezma Guadalajara Ativo 132 / 137 40% 1 22.01.2027 -
Victor Araujo Veracruz Ativo 147 / 145 40% 3 20.01.2027 -
Carlos Gruezo Santos Laguna Ativo 124 / 123 40% 1 20.01.2027 -
Javi Sánchez Arouca Ativo 137 / 137 40% 4 17.01.2027 -
Ángelo Preciado Atlético Mineiro Ativo 138 / 129 40% 2 10.01.2027 -
Jean Lucas Bahia Ativo 142 / 140 40% 3 10.01.2027 -
Marcos Antonio Sport Recife Ativo 136 / 140 40% 1 10.01.2027 -
Léo Ortiz Flamengo Ativo 145 / 137 40% 2 08.01.2027 -
Luís Esteves Atlas Ativo 129 / 128 40% 3 06.01.2027 -
Erik Lira Cruz Azul Ativo 131 / 136 40% 2 06.01.2027 -
Santiago Sosa Vasco da Gama Ativo 129 / 130 40% 1 06.01.2027 -
Vitinho Botafogo Ativo 128 / 136 40% 4 05.01.2027 -
Kevin Álvarez Club America Ativo 133 / 134 40% 1 05.01.2027 -
Lyanco Atlético Mineiro Ativo 131 / 134 40% 3 04.01.2027 -
Maxime Dominguez Maritimo Ativo 122 / 118 40% 1 04.01.2027 -
Iqraam Rayners Mamelodi Sundowns Ativo 140 / 124 40% 3 23.12.2026 -
Diber Cambindo Leon Ativo 132 / 130 40% 1 23.12.2026 -
Nicolás Ibáñez Cruz Azul Ativo 131 / 136 40% 1 23.12.2026 -
Ruan Carneiro Juventude Rejeitado 103 / 102 72% 1 21.12.2026 Rejeitar
Carlos Miguel Palmeiras Ativo 127 / 134 40% 1 30.11.2026 -
Franco Petroli Olympique de Marseille Ativo 122 / 128 40% 1 30.11.2026 -
Rodrigo Pinheiro Famalicao Ativo 131 / 131 40% 1 28.11.2026 -
Leon Goretzka Aston Villa Rejeitado 156 / 146 40% 1 28.11.2026 Mais informações
Sergi Altimira Sporting CP Ativo 143 / 137 40% 2 27.11.2026 -
Ismaël Bennacer Palmeiras Ativo 144 / 142 40% 1 27.11.2026 -
Francisco Moura Porto Ativo 137 / 144 40% 5 25.11.2026 -
Fidel Ambríz Monterrey Ativo 124 / 132 40% 1 25.11.2026 -
Alexis Vega Toluca Ativo 143 / 141 40% 4 24.11.2026 Observar
Dodi Lukébakio Benfica Ativo 152 / 143 40% 2 24.11.2026 -
Urko Izeta Cádiz Ativo 142 / 133 40% 1 24.11.2026 -
Paulinho Palmeiras Ativo 143 / 136 40% 4 22.11.2026 -
Umar Sadiq Valencia Ativo 127 / 140 40% 2 22.11.2026 -
Tomáš Chorý Slavia Prague Ativo 138 / 148 40% 5 21.11.2026 -
Abel Ruiz Girona Ativo 143 / 139 40% 2 21.11.2026 -
Esteban Lepaul Stade Rennais Ativo 142 / 136 40% 1 21.11.2026 -
Lucas Boyé Alavés Ativo 130 / 138 40% 2 20.11.2026 Mais informações
Jan Bednarek Porto Ativo 156 / 148 40% 4 19.11.2026 -
Michy Fellaini KV Oostende Ativo 135 / 139 40% 4 18.11.2026 Observar
Juan Brunetta Tigres Ativo 135 / 144 40% 4 18.11.2026 -
Jason Januzaj Mouscron Ativo 156 / 148 40% 2 18.11.2026 Mais informações
Maroan Sannadi Athletic Bilbao Ativo 131 / 139 40% 1 16.11.2026 -
Nicolò Tresoldi Club Brugge Ativo 132 / 128 40% 2 15.11.2026 -
Hwang In-Beom Porto Ativo 135 / 141 40% 1 13.11.2026 -
Enzo Díaz Sport Recife Ativo 128 / 126 40% 1 13.11.2026 -
Iván Fresneda Sporting CP Ativo 127 / 135 40% 2 12.11.2026 -
Youssef En-Nesyri Al-Ittihad Ativo 135 / 145 40% 2 11.11.2026 -
Vitor Roque Palmeiras Ativo 148 / 151 40% 3 11.11.2026 -
Roger Brugué Levante Ativo 137 / 126 40% 1 11.11.2026 -
Joaquín Piquerez Palmeiras Ativo 132 / 139 40% 2 10.11.2026 -
Eddie Nketiah Crystal Palace Ativo 135 / 143 40% 1 10.11.2026 -
Lucas Veríssimo Santos Ativo 136 / 136 40% 1 10.11.2026 -
Leandro Barreiro Benfica Ativo 140 / 132 40% 1 10.11.2026 -
Barış Alper Yılmaz Galatasaray Ativo 150 / 139 40% 1 06.11.2026 -
Armando Broja Burnley Ativo 124 / 139 40% 1 06.11.2026 -
Gorka Guruzeta Athletic Bilbao Ativo 140 / 147 40% 2 05.11.2026 -
Mateo Cassierra Atlético Mineiro Ativo 130 / 137 40% 2 05.11.2026 -
Veljko Birmančević Ferencvaros Ativo 136 / 136 40% 3 01.11.2026 -
João Palhinha Benfica Perdido 151 / 151 40% 4 28.10.2026 -
Víctor Gómez Braga Ativo 142 / 138 40% 2 28.10.2026 -
Fabrício Bruno Cruzeiro Ativo 145 / 135 40% 1 28.10.2026 -
Ángel Correa River Plate Ativo 138 / 145 40% 4 27.10.2026 -
Toni Martínez Alavés Ativo 137 / 136 40% 2 25.10.2026 -
Yoane Wissa Newcastle United Ativo 152 / 148 40% 2 25.10.2026 Mais informações
Hugo Duro Valencia Ativo 128 / 144 40% 1 25.10.2026 -
Azzedine Ounahi Girona Ativo 132 / 144 40% 1 24.10.2026 -
Leandro Trossard Besiktas Ativo 161 / 160 40% 2 21.10.2026 -
Soufiane Rahimi Al Ain Ativo 137 / 136 40% 1 21.10.2026 -
Lucas Paquetá Flamengo Ativo 140 / 139 40% 1 19.10.2026 -
Denis Bouanga Los Angeles Football Club Ativo 136 / 133 40% 2 13.10.2026 -
Kerem Aktürkoğlu Fenerbahce Ativo 141 / 138 40% 1 13.10.2026 -
Liziero Nacional Ativo 138 / 124 40% 1 11.10.2026 -
Renan Lodi Atlético Mineiro Ativo 138 / 140 40% 1 11.10.2026 -
Gonçalo Inácio Sporting CP Ativo 150 / 140 40% 2 10.10.2026 -
Bruno Gomes Internacional Ativo 122 / 126 40% 1 10.10.2026 -
Eduardo Quaresma Sporting CP Ativo 134 / 135 40% 1 10.10.2026 -
Kaio Jorge Cruzeiro Ativo 146 / 145 40% 2 08.10.2026 -
Pedro Flamengo Ativo 146 / 139 40% 3 08.10.2026 -
Andrés Martín Racing Santander Ativo 125 / 130 40% 1 07.10.2026 -
Folarin Balogun Monaco Ativo 139 / 142 40% 3 05.10.2026 -
Dávid Strelec Middlesbrough Ativo 128 / 140 40% 2 05.10.2026 -
Arthur Palmeiras Ativo 137 / 137 40% 2 05.10.2026 -
Richard Ríos Benfica Ativo 134 / 133 40% 1 05.10.2026 -
Alexander Bah Benfica Ativo 134 / 134 40% 1 05.10.2026 -
Sergio Reguilón Inter Miami CF Ativo 138 / 132 40% 1 03.10.2026 -
Zeno Debast Sporting CP Ativo 142 / 142 40% 2 30.09.2026 -
Sergio Quintero La Equidad Ativo 138 / 144 40% 1 30.09.2026 -
Mauro Arambarri River Plate Ativo 158 / 153 40% 1 30.09.2026 -
Alexey Batrakov Galatasaray Ativo 131 / 150 40% 2 29.09.2026 -
Takuma Asano Sanfrecce Hiroshima Ativo 122 / 136 40% 1 29.09.2026 -
Sikou Niakaté Braga Ativo 136 / 131 40% 3 28.09.2026 -
Bertrand Traoré Sunderland Ativo 144 / 142 40% 1 28.09.2026 -
Ivan Toney Al-Ahli Ativo 160 / 153 40% 3 20.09.2026 -
José Manuel López Palmeiras Ativo 134 / 132 40% 1 20.09.2026 -
Alan Varela Porto Ativo 149 / 148 40% 2 19.09.2026 -
Jordan Holsgrove Estoril Praia Ativo 138 / 136 40% 1 19.09.2026 -
Nicolás Fernández Mercau New York City Ativo 142 / 135 40% 1 18.09.2026 -
Breel Embolo Brighton Ativo 126 / 138 40% 1 17.09.2026 -
Pau Víctor Braga Ativo 128 / 143 40% 1 17.09.2026 -
Nehuén Pérez Porto Ativo 139 / 133 40% 1 15.09.2026 -
Romain Del Castillo Stade Brestois Ativo 128 / 141 40% 2 14.09.2026 -
Oli McBurnie Hull City Ativo 124 / 141 40% 1 14.09.2026 -
Guilherme Arana Fluminense Ativo 140 / 140 40% 1 13.09.2026 -
Mathias De Amorim Famalicao Ativo 126 / 128 40% 1 13.09.2026 -
Alessandro Circati Benfica Ativo 122 / 144 40% 2 12.09.2026 -
Randal Kolo Muani Juventus Ativo 148 / 138 40% 1 09.09.2026 -
Julián Quiñones Al-Qadisiyah Ativo 153 / 154 40% 4 05.09.2026 -
Leo Ceara Kashima Antlers Ativo 127 / 132 40% 3 04.09.2026 -
Carlos Vinícius Grêmio Ativo 136 / 140 40% 2 30.08.2026 -
Jean-Luc Morin Tours Ativo 148 / 134 40% 1 24.08.2026 -
Petar Musa FC Dallas Ativo 129 / 132 40% 1 21.08.2026 -
Ricardo Horta Braga Ativo 151 / 142 40% 1 20.08.2026 -
Cesar Corona Veracruz Ativo 127 / 138 40% 2 12.08.2026 -
Giovanni Simeone Torino Ativo 136 / 137 40% 1 07.08.2026 -
Saúl Flamengo Ativo 130 / 142 40% 1 07.08.2026 -
Pablo Maffeo Olympiacos Ativo 144 / 148 40% 1 07.08.2026 -
Bright Arrey-Mbi Braga Ativo 123 / 135 40% 1 06.08.2026 -
Leonardo Lelo Braga Ativo 125 / 137 40% 1 06.08.2026 -
Mahmoud Al Bloushi Al Shabab Ativo 136 / 148 40% 1 04.08.2026 -
Yuma Suzuki Kashima Antlers Ativo 124 / 128 40% 1 03.08.2026 -
Vitor Carvalho Braga Ativo 120 / 127 40% 2 02.08.2026 -
Mouctar Diakhaby Valencia Ativo 148 / 130 40% 1 02.08.2026 -
Léo Pereira Flamengo Ativo 134 / 134 40% 1 01.08.2026 -